createdAt,value
2019-03-03T00:00:34.694Z,1001.81
2019-03-03T00:01:36.089Z,1001.77
2019-03-03T00:02:37.665Z,1001.82
2019-03-03T00:03:39.058Z,1001.79
2019-03-03T00:04:40.443Z,1001.79
2019-03-03T00:05:41.831Z,1001.82
2019-03-03T00:06:43.203Z,1001.81
2019-03-03T00:07:44.590Z,1001.84
2019-03-03T00:08:45.989Z,1001.82
2019-03-03T00:09:47.369Z,1001.76
2019-03-03T00:10:48.756Z,1001.72
2019-03-03T00:11:50.157Z,1001.77
2019-03-03T00:12:51.551Z,1001.73
2019-03-03T00:13:53.019Z,1001.67
2019-03-03T00:14:55.025Z,1001.68
2019-03-03T00:15:56.411Z,1001.64
2019-03-03T00:16:57.796Z,1001.67
2019-03-03T00:17:59.188Z,1001.64
2019-03-03T00:19:00.574Z,1001.63
2019-03-03T00:20:01.962Z,1001.64
2019-03-03T00:21:03.356Z,1001.65
2019-03-03T00:22:04.746Z,1001.63
2019-03-03T00:23:06.130Z,1001.60
2019-03-03T00:24:07.522Z,1001.62
2019-03-03T00:25:08.916Z,1001.58
2019-03-03T00:26:10.298Z,1001.64
2019-03-03T00:27:11.690Z,1001.58
2019-03-03T00:28:13.087Z,1001.59
2019-03-03T00:29:14.466Z,1001.54
2019-03-03T00:30:15.855Z,1001.53
2019-03-03T00:31:17.243Z,1001.44
2019-03-03T00:32:18.647Z,1001.47
2019-03-03T00:33:20.042Z,1001.45
2019-03-03T00:34:21.427Z,1001.43
2019-03-03T00:35:22.818Z,1001.44
2019-03-03T00:36:24.198Z,1001.42
2019-03-03T00:37:25.589Z,1001.43
2019-03-03T00:38:26.965Z,1001.40
2019-03-03T00:39:28.363Z,1001.37
2019-03-03T00:40:29.751Z,1001.35
2019-03-03T00:41:31.134Z,1001.31
2019-03-03T00:42:32.572Z,1001.33
2019-03-03T00:43:34.000Z,1001.33
2019-03-03T00:44:35.396Z,1001.31
2019-03-03T00:45:36.781Z,1001.34
2019-03-03T00:46:38.201Z,1001.37
2019-03-03T00:47:39.606Z,1001.32
2019-03-03T00:48:41.029Z,1001.30
2019-03-03T00:49:42.434Z,1001.32
2019-03-03T00:50:43.842Z,1001.24
2019-03-03T00:51:45.270Z,1001.29
2019-03-03T00:52:46.798Z,1001.27
2019-03-03T00:53:48.296Z,1001.27
2019-03-03T00:54:49.684Z,1001.22
2019-03-03T00:55:51.106Z,1001.26
2019-03-03T00:56:52.485Z,1001.23
2019-03-03T00:57:53.881Z,1001.26
2019-03-03T00:58:55.303Z,1001.25
2019-03-03T00:59:56.709Z,1001.21
2019-03-03T01:00:58.128Z,1001.24
2019-03-03T01:01:59.517Z,1001.19
2019-03-03T01:03:00.921Z,1001.24
2019-03-03T01:04:02.315Z,1001.21
2019-03-03T01:05:03.728Z,1001.16
2019-03-03T01:06:05.132Z,1001.18
2019-03-03T01:07:06.547Z,1001.11
2019-03-03T01:08:07.946Z,1001.15
2019-03-03T01:09:09.340Z,1001.09
2019-03-03T01:10:10.751Z,1001.09
2019-03-03T01:11:12.144Z,1001.05
2019-03-03T01:12:13.555Z,1001.07
2019-03-03T01:13:14.954Z,1001.01
2019-03-03T01:14:16.352Z,1001.06
2019-03-03T01:15:17.741Z,1001.01
2019-03-03T01:16:19.146Z,1000.97
2019-03-03T01:17:20.544Z,1000.95
2019-03-03T01:18:21.940Z,1000.95
2019-03-03T01:19:23.337Z,1000.88
2019-03-03T01:20:24.737Z,1000.82
2019-03-03T01:21:26.142Z,1000.83
2019-03-03T01:22:27.539Z,1000.75
2019-03-03T01:23:28.930Z,1000.69
2019-03-03T01:24:30.357Z,1000.70
2019-03-03T01:25:31.803Z,1000.68
2019-03-03T01:26:33.212Z,1000.66
2019-03-03T01:27:34.618Z,1000.68
2019-03-03T01:28:36.019Z,1000.64
2019-03-03T01:29:37.418Z,1000.67
2019-03-03T01:30:38.813Z,1000.68
2019-03-03T01:31:40.213Z,1000.65
2019-03-03T01:32:41.600Z,1000.60
2019-03-03T01:33:42.989Z,1000.58
2019-03-03T01:34:44.377Z,1000.59
2019-03-03T01:35:45.770Z,1000.57
2019-03-03T01:36:47.166Z,1000.55
2019-03-03T01:37:48.568Z,1000.51
2019-03-03T01:38:49.958Z,1000.49
2019-03-03T01:39:51.357Z,1000.49
2019-03-03T01:40:52.747Z,1000.48
2019-03-03T01:41:54.195Z,1000.46
2019-03-03T01:42:56.033Z,1000.42
2019-03-03T01:43:57.438Z,1000.36
2019-03-03T01:44:58.860Z,1000.32
2019-03-03T01:46:00.296Z,1000.35
2019-03-03T01:47:01.728Z,1000.40
2019-03-03T01:48:03.143Z,1000.46
2019-03-03T01:49:04.544Z,1000.42
2019-03-03T01:50:05.991Z,1000.45
2019-03-03T01:51:07.420Z,1000.49
2019-03-03T01:52:08.836Z,1000.53
2019-03-03T01:53:10.284Z,1000.51
2019-03-03T01:54:11.723Z,1000.54
2019-03-03T01:55:13.158Z,1000.52
2019-03-03T01:56:14.582Z,1000.55
2019-03-03T01:57:15.994Z,1000.55
2019-03-03T01:58:18.079Z,1000.52
2019-03-03T01:59:19.487Z,1000.54
2019-03-03T02:00:20.899Z,1000.52
2019-03-03T02:01:22.301Z,1000.48
2019-03-03T02:02:23.717Z,1000.50
2019-03-03T02:03:25.166Z,1000.48
2019-03-03T02:04:26.563Z,1000.45
2019-03-03T02:05:27.956Z,1000.44
2019-03-03T02:06:29.361Z,1000.48
2019-03-03T02:07:30.796Z,1000.43
2019-03-03T02:08:32.193Z,1000.51
2019-03-03T02:09:33.655Z,1000.43
2019-03-03T02:10:35.074Z,1000.41
2019-03-03T02:11:36.496Z,1000.43
2019-03-03T02:12:37.917Z,1000.39
2019-03-03T02:13:39.325Z,1000.43
2019-03-03T02:14:40.720Z,1000.44
2019-03-03T02:15:42.132Z,1000.45
2019-03-03T02:16:43.550Z,1000.44
2019-03-03T02:17:44.950Z,1000.46
2019-03-03T02:18:46.386Z,1000.42
2019-03-03T02:19:47.812Z,1000.38
2019-03-03T02:20:49.222Z,1000.42
2019-03-03T02:21:50.634Z,1000.39
2019-03-03T02:22:52.032Z,1000.37
2019-03-03T02:23:53.441Z,1000.33
2019-03-03T02:24:54.869Z,1000.33
2019-03-03T02:25:56.287Z,1000.28
2019-03-03T02:26:57.715Z,1000.22
2019-03-03T02:27:59.131Z,1000.25
2019-03-03T02:29:00.565Z,1000.21
2019-03-03T02:30:01.972Z,1000.16
2019-03-03T02:31:03.398Z,1000.13
2019-03-03T02:32:04.805Z,1000.08
2019-03-03T02:33:06.240Z,1000.12
2019-03-03T02:34:07.618Z,1000.09
2019-03-03T02:35:09.015Z,1000.08
2019-03-03T02:36:10.418Z,1000.10
2019-03-03T02:37:11.842Z,1000.11
2019-03-03T02:38:13.249Z,1000.12
2019-03-03T02:39:14.656Z,1000.11
2019-03-03T02:40:16.057Z,1000.08
2019-03-03T02:41:17.451Z,1000.06
2019-03-03T02:42:18.848Z,1000.07
2019-03-03T02:43:20.255Z,1000.06
2019-03-03T02:44:21.673Z,1000.02
2019-03-03T02:45:23.061Z,1000.02
2019-03-03T02:46:24.473Z,999.98
2019-03-03T02:47:25.870Z,1000.02
2019-03-03T02:48:27.269Z,999.98
2019-03-03T02:49:28.655Z,999.97
2019-03-03T02:50:30.047Z,999.96
2019-03-03T02:51:31.465Z,999.94
2019-03-03T02:52:32.887Z,999.93
2019-03-03T02:53:34.274Z,999.96
2019-03-03T02:54:35.680Z,999.90
2019-03-03T02:55:37.072Z,999.91
2019-03-03T02:56:38.467Z,999.88
2019-03-03T02:57:39.879Z,999.89
2019-03-03T02:58:41.274Z,999.91
2019-03-03T02:59:42.656Z,999.89
2019-03-03T03:00:44.056Z,999.83
2019-03-03T03:01:45.453Z,999.81
2019-03-03T03:02:46.862Z,999.76
2019-03-03T03:03:48.260Z,999.78
2019-03-03T03:04:49.676Z,999.77
2019-03-03T03:05:51.098Z,999.74
2019-03-03T03:06:52.488Z,999.71
2019-03-03T03:07:53.902Z,999.67
2019-03-03T03:08:55.326Z,999.68
2019-03-03T03:09:56.751Z,999.68
2019-03-03T03:10:58.145Z,999.67
2019-03-03T03:11:59.548Z,999.65
2019-03-03T03:13:00.975Z,999.64
2019-03-03T03:14:02.367Z,999.66
2019-03-03T03:15:03.762Z,999.63
2019-03-03T03:16:05.168Z,999.62
2019-03-03T03:17:06.592Z,999.61
2019-03-03T03:18:08.824Z,999.61
2019-03-03T03:19:10.242Z,999.54
2019-03-03T03:20:11.628Z,999.58
2019-03-03T03:21:13.021Z,999.60
2019-03-03T03:22:14.464Z,999.61
2019-03-03T03:23:15.870Z,999.60
2019-03-03T03:24:17.270Z,999.58
2019-03-03T03:25:18.683Z,999.53
2019-03-03T03:26:20.072Z,999.56
2019-03-03T03:27:21.468Z,999.54
2019-03-03T03:28:22.872Z,999.53
2019-03-03T03:29:24.277Z,999.52
2019-03-03T03:30:25.705Z,999.48
2019-03-03T03:31:27.177Z,999.46
2019-03-03T03:32:28.537Z,999.39
2019-03-03T03:33:29.906Z,999.35
2019-03-03T03:34:31.349Z,999.31
2019-03-03T03:35:32.768Z,999.31
2019-03-03T03:36:36.567Z,999.26
2019-03-03T03:37:35.588Z,999.22
2019-03-03T03:38:37.048Z,999.22
2019-03-03T03:39:38.542Z,999.20
2019-03-03T03:40:39.998Z,999.16
2019-03-03T03:41:41.445Z,999.09
2019-03-03T03:42:42.844Z,999.03
2019-03-03T03:43:44.234Z,999.08
2019-03-03T03:44:45.649Z,999.07
2019-03-03T03:45:47.054Z,999.03
2019-03-03T03:46:48.451Z,998.99
2019-03-03T03:47:49.862Z,998.96
2019-03-03T03:48:51.296Z,998.90
2019-03-03T03:49:53.652Z,998.98
2019-03-03T03:50:55.062Z,999.01
2019-03-03T03:51:56.478Z,998.91
2019-03-03T03:52:57.889Z,998.94
2019-03-03T03:53:59.309Z,998.95
2019-03-03T03:55:00.703Z,998.96
2019-03-03T03:56:02.097Z,998.89
2019-03-03T03:57:03.520Z,998.92
2019-03-03T03:58:04.914Z,998.93
2019-03-03T03:59:06.334Z,998.87
2019-03-03T04:00:07.746Z,998.85
2019-03-03T04:01:09.139Z,998.72
2019-03-03T04:02:10.537Z,998.77
2019-03-03T04:03:11.967Z,998.71
2019-03-03T04:04:13.370Z,998.66
2019-03-03T04:05:14.777Z,998.66
2019-03-03T04:06:16.221Z,998.69
2019-03-03T04:07:17.637Z,998.60
2019-03-03T04:08:19.073Z,998.61
2019-03-03T04:09:20.507Z,998.62
2019-03-03T04:10:21.930Z,998.62
2019-03-03T04:11:23.331Z,998.59
2019-03-03T04:12:24.740Z,998.58
2019-03-03T04:13:26.170Z,998.60
2019-03-03T04:14:27.614Z,998.60
2019-03-03T04:15:29.063Z,998.54
2019-03-03T04:16:30.426Z,998.57
2019-03-03T04:17:31.846Z,998.56
2019-03-03T04:18:33.260Z,998.52
2019-03-03T04:19:34.678Z,998.52
2019-03-03T04:20:36.084Z,998.58
2019-03-03T04:21:39.072Z,998.54
2019-03-03T04:22:40.467Z,998.56
2019-03-03T04:23:41.948Z,998.53
2019-03-03T04:24:43.358Z,998.58
2019-03-03T04:25:44.760Z,998.55
2019-03-03T04:26:46.157Z,998.52
2019-03-03T04:27:47.554Z,998.64
2019-03-03T04:28:48.993Z,998.59
2019-03-03T04:29:50.413Z,998.56
2019-03-03T04:30:51.823Z,998.53
2019-03-03T04:31:53.223Z,998.52
2019-03-03T04:32:54.615Z,998.51
2019-03-03T04:33:56.042Z,998.47
2019-03-03T04:34:57.456Z,998.46
2019-03-03T04:35:58.868Z,998.41
2019-03-03T04:37:00.280Z,998.42
2019-03-03T04:38:01.706Z,998.42
2019-03-03T04:39:03.103Z,998.42
2019-03-03T04:40:04.508Z,998.36
2019-03-03T04:41:05.911Z,998.34
2019-03-03T04:42:07.305Z,998.31
2019-03-03T04:43:08.704Z,998.26
2019-03-03T04:44:10.082Z,998.24
2019-03-03T04:45:11.505Z,998.17
2019-03-03T04:46:12.900Z,998.17
2019-03-03T04:47:14.325Z,998.14
2019-03-03T04:48:15.737Z,998.14
2019-03-03T04:49:17.152Z,998.10
2019-03-03T04:50:18.553Z,998.11
2019-03-03T04:51:19.991Z,998.18
2019-03-03T04:52:21.421Z,998.15
2019-03-03T04:53:22.819Z,998.16
2019-03-03T04:54:24.227Z,998.06
2019-03-03T04:55:25.647Z,998.16
2019-03-03T04:56:27.084Z,998.15
2019-03-03T04:57:28.482Z,998.17
2019-03-03T04:58:29.932Z,998.13
2019-03-03T04:59:31.376Z,998.15
2019-03-03T05:00:32.802Z,998.22
2019-03-03T05:01:34.216Z,998.24
2019-03-03T05:02:35.652Z,998.20
2019-03-03T05:03:37.079Z,998.25
2019-03-03T05:04:38.511Z,998.22
2019-03-03T05:05:39.946Z,998.21
2019-03-03T05:06:41.338Z,998.25
2019-03-03T05:07:42.732Z,998.17
2019-03-03T05:08:44.142Z,998.15
2019-03-03T05:09:45.542Z,998.16
2019-03-03T05:10:46.946Z,998.15
2019-03-03T05:11:48.364Z,998.17
2019-03-03T05:12:49.756Z,998.18
2019-03-03T05:13:51.159Z,998.20
2019-03-03T05:14:52.558Z,998.18
2019-03-03T05:15:53.953Z,998.05
2019-03-03T05:16:55.359Z,998.06
2019-03-03T05:17:56.768Z,998.03
2019-03-03T05:18:58.165Z,997.99
2019-03-03T05:19:59.562Z,997.92
2019-03-03T05:21:00.985Z,997.92
2019-03-03T05:22:02.414Z,997.86
2019-03-03T05:23:03.825Z,997.86
2019-03-03T05:24:05.213Z,997.86
2019-03-03T05:25:06.604Z,997.93
2019-03-03T05:26:08.035Z,997.90
2019-03-03T05:27:09.438Z,997.93
2019-03-03T05:28:10.842Z,997.92
2019-03-03T05:29:12.254Z,997.85
2019-03-03T05:30:13.648Z,997.89
2019-03-03T05:31:15.076Z,997.91
2019-03-03T05:32:16.488Z,997.91
2019-03-03T05:33:17.892Z,997.89
2019-03-03T05:34:19.303Z,997.88
2019-03-03T05:35:20.724Z,997.78
2019-03-03T05:36:22.104Z,997.73
2019-03-03T05:37:23.518Z,997.68
2019-03-03T05:38:24.926Z,997.68
2019-03-03T05:39:26.338Z,997.79
2019-03-03T05:40:27.716Z,997.72
2019-03-03T05:41:29.792Z,997.70
2019-03-03T05:42:31.211Z,997.65
2019-03-03T05:43:32.611Z,997.67
2019-03-03T05:44:34.001Z,997.61
2019-03-03T05:45:35.403Z,997.63
2019-03-03T05:46:36.801Z,997.66
2019-03-03T05:47:38.213Z,997.65
2019-03-03T05:48:39.620Z,997.63
2019-03-03T05:49:41.011Z,997.67
2019-03-03T05:50:42.420Z,997.67
2019-03-03T05:51:43.811Z,997.64
2019-03-03T05:52:45.225Z,997.59
2019-03-03T05:53:46.628Z,997.61
2019-03-03T05:54:48.039Z,997.59
2019-03-03T05:55:49.450Z,997.56
2019-03-03T05:56:50.844Z,997.53
2019-03-03T05:57:52.238Z,997.52
2019-03-03T05:58:53.635Z,997.49
2019-03-03T05:59:55.025Z,997.51
2019-03-03T06:00:56.444Z,997.45
2019-03-03T06:01:57.831Z,997.39
2019-03-03T06:02:59.253Z,997.37
2019-03-03T06:04:00.650Z,997.37
2019-03-03T06:05:02.039Z,997.39
2019-03-03T06:06:03.434Z,997.51
2019-03-03T06:07:04.824Z,997.43
2019-03-03T06:08:06.212Z,997.38
2019-03-03T06:09:07.596Z,997.37
2019-03-03T06:10:08.989Z,997.43
2019-03-03T06:11:10.391Z,997.32
2019-03-03T06:12:11.775Z,997.29
2019-03-03T06:13:13.177Z,997.34
2019-03-03T06:14:14.580Z,997.34
2019-03-03T06:15:15.976Z,997.29
2019-03-03T06:16:17.371Z,997.30
2019-03-03T06:17:18.766Z,997.31
2019-03-03T06:18:20.175Z,997.27
2019-03-03T06:19:21.581Z,997.24
2019-03-03T06:20:22.979Z,997.25
2019-03-03T06:21:24.367Z,997.24
2019-03-03T06:22:25.765Z,997.28
2019-03-03T06:23:27.160Z,997.31
2019-03-03T06:24:28.556Z,997.23
2019-03-03T06:25:29.982Z,997.26
2019-03-03T06:26:31.387Z,997.19
2019-03-03T06:27:32.788Z,997.17
2019-03-03T06:28:34.197Z,997.15
2019-03-03T06:29:35.598Z,997.23
2019-03-03T06:30:36.996Z,997.23
2019-03-03T06:31:38.398Z,997.18
2019-03-03T06:32:39.795Z,997.10
2019-03-03T06:33:41.192Z,997.02
2019-03-03T06:34:42.594Z,997.04
2019-03-03T06:35:43.982Z,996.99
2019-03-03T06:36:45.390Z,997.03
2019-03-03T06:37:46.802Z,997.01
2019-03-03T06:38:48.197Z,997.01
2019-03-03T06:39:49.591Z,996.99
2019-03-03T06:40:50.976Z,996.97
2019-03-03T06:41:52.397Z,996.97
2019-03-03T06:42:53.799Z,996.97
2019-03-03T06:43:55.198Z,996.93
2019-03-03T06:44:56.581Z,996.95
2019-03-03T06:45:57.985Z,996.97
2019-03-03T06:46:59.981Z,996.95
2019-03-03T06:48:01.373Z,996.96
2019-03-03T06:49:02.771Z,997.01
2019-03-03T06:50:04.189Z,997.02
2019-03-03T06:51:05.602Z,996.95
2019-03-03T06:52:07.017Z,996.94
2019-03-03T06:53:08.450Z,996.96
2019-03-03T06:54:09.859Z,996.91
2019-03-03T06:55:11.268Z,996.89
2019-03-03T06:56:12.678Z,996.97
2019-03-03T06:57:14.058Z,996.97
2019-03-03T06:58:15.466Z,996.93
2019-03-03T06:59:16.858Z,996.98
2019-03-03T07:00:18.271Z,996.94
2019-03-03T07:01:20.092Z,996.93
2019-03-03T07:02:21.492Z,996.89
2019-03-03T07:03:22.890Z,996.81
2019-03-03T07:04:24.278Z,996.88
2019-03-03T07:05:26.124Z,996.92
2019-03-03T07:06:27.207Z,996.89
2019-03-03T07:07:28.599Z,996.89
2019-03-03T07:08:30.027Z,996.80
2019-03-03T07:09:31.441Z,996.78
2019-03-03T07:10:32.843Z,996.85
2019-03-03T07:11:34.246Z,996.87
2019-03-03T07:12:35.647Z,996.80
2019-03-03T07:13:37.045Z,996.79
2019-03-03T07:14:38.451Z,996.78
2019-03-03T07:15:39.845Z,996.85
2019-03-03T07:16:41.239Z,996.78
2019-03-03T07:17:42.641Z,996.77
2019-03-03T07:18:44.067Z,996.80
2019-03-03T07:19:45.457Z,996.77
2019-03-03T07:20:46.865Z,996.80
2019-03-03T07:21:48.253Z,996.83
2019-03-03T07:22:49.668Z,996.78
2019-03-03T07:23:51.078Z,996.83
2019-03-03T07:24:52.474Z,996.83
2019-03-03T07:25:53.874Z,996.84
2019-03-03T07:26:55.282Z,996.77
2019-03-03T07:27:56.691Z,996.76
2019-03-03T07:28:58.088Z,996.84
2019-03-03T07:29:59.497Z,996.79
2019-03-03T07:31:00.909Z,996.87
2019-03-03T07:32:02.303Z,996.85
2019-03-03T07:33:04.558Z,996.85
2019-03-03T07:34:05.988Z,996.88
2019-03-03T07:35:07.430Z,996.81
2019-03-03T07:36:08.855Z,996.88
2019-03-03T07:37:10.285Z,996.75
2019-03-03T07:38:11.687Z,996.79
2019-03-03T07:39:13.097Z,996.80
2019-03-03T07:40:14.509Z,996.78
2019-03-03T07:41:15.931Z,996.82
2019-03-03T07:42:17.347Z,996.80
2019-03-03T07:43:18.767Z,996.81
2019-03-03T07:44:20.168Z,996.77
2019-03-03T07:45:21.572Z,996.80
2019-03-03T07:46:22.971Z,996.78
2019-03-03T07:47:24.414Z,996.81
2019-03-03T07:48:26.463Z,996.74
2019-03-03T07:49:27.868Z,996.78
2019-03-03T07:50:29.314Z,996.73
2019-03-03T07:51:30.776Z,996.76
2019-03-03T07:52:32.978Z,996.72
2019-03-03T07:53:33.616Z,996.67
2019-03-03T07:54:35.092Z,996.68
2019-03-03T07:55:36.526Z,996.69
2019-03-03T07:56:37.954Z,996.70
2019-03-03T07:57:39.388Z,996.73
2019-03-03T07:58:40.845Z,996.70
2019-03-03T07:59:42.287Z,996.72
2019-03-03T08:00:43.740Z,996.76
2019-03-03T08:01:45.186Z,996.74
2019-03-03T08:02:46.686Z,996.76
2019-03-03T08:03:48.137Z,996.68
2019-03-03T08:04:50.880Z,996.69
2019-03-03T08:05:52.341Z,996.63
2019-03-03T08:06:53.765Z,996.65
2019-03-03T08:07:55.195Z,996.68
2019-03-03T08:08:56.618Z,996.67
2019-03-03T08:09:58.463Z,996.65
2019-03-03T08:10:59.447Z,996.67
2019-03-03T08:12:00.854Z,996.66
2019-03-03T08:13:09.021Z,996.71
2019-03-03T08:14:03.676Z,996.66
2019-03-03T08:15:05.073Z,996.63
2019-03-03T08:16:06.492Z,996.62
2019-03-03T08:17:08.838Z,996.58
2019-03-03T08:18:10.258Z,996.54
2019-03-03T08:19:11.681Z,996.65
2019-03-03T08:20:13.122Z,996.64
2019-03-03T08:21:14.610Z,996.66
2019-03-03T08:22:16.068Z,996.60
2019-03-03T08:23:17.553Z,996.63
2019-03-03T08:24:19.040Z,996.61
2019-03-03T08:25:20.496Z,996.62
2019-03-03T08:26:21.946Z,996.65
2019-03-03T08:27:23.392Z,996.57
2019-03-03T08:28:24.819Z,996.58
2019-03-03T08:29:26.241Z,996.60
2019-03-03T08:30:27.641Z,996.61
2019-03-03T08:31:29.051Z,996.58
2019-03-03T08:32:30.502Z,996.59
2019-03-03T08:33:31.921Z,996.57
2019-03-03T08:34:33.335Z,996.64
2019-03-03T08:35:34.735Z,996.58
2019-03-03T08:36:36.165Z,996.60
2019-03-03T08:37:37.556Z,996.57
2019-03-03T08:38:38.949Z,996.55
2019-03-03T08:39:40.355Z,996.57
2019-03-03T08:40:41.761Z,996.56
2019-03-03T08:41:43.165Z,996.54
2019-03-03T08:42:44.580Z,996.60
2019-03-03T08:43:45.989Z,996.62
2019-03-03T08:44:47.383Z,996.56
2019-03-03T08:45:48.803Z,996.61
2019-03-03T08:46:50.224Z,996.62
2019-03-03T08:47:53.384Z,996.55
2019-03-03T08:48:52.987Z,996.63
2019-03-03T08:49:54.390Z,996.59
2019-03-03T08:50:55.786Z,996.58
2019-03-03T08:51:57.188Z,996.65
2019-03-03T08:52:58.616Z,996.71
2019-03-03T08:54:00.021Z,996.66
2019-03-03T08:55:01.436Z,996.63
2019-03-03T08:56:02.845Z,996.67
2019-03-03T08:57:04.260Z,996.67
2019-03-03T08:58:05.661Z,996.59
2019-03-03T08:59:07.062Z,996.69
2019-03-03T09:00:08.469Z,996.73
2019-03-03T09:01:09.901Z,996.69
2019-03-03T09:02:11.319Z,996.73
2019-03-03T09:03:12.732Z,996.68
2019-03-03T09:04:14.146Z,996.62
2019-03-03T09:05:15.563Z,996.65
2019-03-03T09:06:16.958Z,996.65
2019-03-03T09:07:18.371Z,996.66
2019-03-03T09:08:19.775Z,996.67
2019-03-03T09:09:21.170Z,996.65
2019-03-03T09:10:25.375Z,996.69
2019-03-03T09:11:23.958Z,996.73
2019-03-03T09:12:25.366Z,996.72
2019-03-03T09:13:26.760Z,996.69
2019-03-03T09:14:28.161Z,996.67
2019-03-03T09:15:29.557Z,996.71
2019-03-03T09:16:30.972Z,996.67
2019-03-03T09:17:32.377Z,996.67
2019-03-03T09:18:33.794Z,996.62
2019-03-03T09:19:35.194Z,996.72
2019-03-03T09:20:36.586Z,996.71
2019-03-03T09:21:38.008Z,996.69
2019-03-03T09:22:39.427Z,996.72
2019-03-03T09:23:40.842Z,996.73
2019-03-03T09:24:42.252Z,996.77
2019-03-03T09:25:43.648Z,996.75
2019-03-03T09:26:45.066Z,996.70
2019-03-03T09:27:46.482Z,996.72
2019-03-03T09:28:47.905Z,996.64
2019-03-03T09:29:49.313Z,996.65
2019-03-03T09:30:50.727Z,996.63
2019-03-03T09:31:52.152Z,996.65
2019-03-03T09:32:53.567Z,996.65
2019-03-03T09:33:55.006Z,996.72
2019-03-03T09:34:56.415Z,996.73
2019-03-03T09:35:57.799Z,996.69
2019-03-03T09:36:59.234Z,996.71
2019-03-03T09:38:00.647Z,996.68
2019-03-03T09:39:02.058Z,996.61
2019-03-03T09:40:09.456Z,996.67
2019-03-03T09:41:04.879Z,996.68
2019-03-03T09:42:06.290Z,996.68
2019-03-03T09:43:07.686Z,996.75
2019-03-03T09:44:10.501Z,996.71
2019-03-03T09:45:10.485Z,996.73
2019-03-03T09:46:11.928Z,996.72
2019-03-03T09:47:13.342Z,996.71
2019-03-03T09:48:14.732Z,996.73
2019-03-03T09:49:17.190Z,996.73
2019-03-03T09:50:17.540Z,996.73
2019-03-03T09:51:18.984Z,996.72
2019-03-03T09:52:20.410Z,996.65
2019-03-03T09:53:21.890Z,996.67
2019-03-03T09:54:23.295Z,996.67
2019-03-03T09:55:24.705Z,996.70
2019-03-03T09:56:26.110Z,996.71
2019-03-03T09:57:27.535Z,996.75
2019-03-03T09:58:28.959Z,996.72
2019-03-03T09:59:30.363Z,996.71
2019-03-03T10:00:31.770Z,996.78
2019-03-03T10:01:33.173Z,996.77
2019-03-03T10:02:34.589Z,996.77
2019-03-03T10:03:35.983Z,996.76
2019-03-03T10:04:37.380Z,996.73
2019-03-03T10:05:38.791Z,996.72
2019-03-03T10:06:40.209Z,996.69
2019-03-03T10:07:41.642Z,996.77
2019-03-03T10:08:43.041Z,996.71
2019-03-03T10:09:44.450Z,996.75
2019-03-03T10:10:45.857Z,996.88
2019-03-03T10:11:47.298Z,996.73
2019-03-03T10:12:48.732Z,996.75
2019-03-03T10:13:50.166Z,996.72
2019-03-03T10:14:51.558Z,996.77
2019-03-03T10:15:52.962Z,996.76
2019-03-03T10:16:54.376Z,996.86
2019-03-03T10:17:55.769Z,996.77
2019-03-03T10:19:06.776Z,996.81
2019-03-03T10:19:58.536Z,996.97
2019-03-03T10:20:59.941Z,996.82
2019-03-03T10:22:01.371Z,996.81
2019-03-03T10:23:03.771Z,996.88
2019-03-03T10:24:05.938Z,996.86
2019-03-03T10:25:07.342Z,996.82
2019-03-03T10:26:08.741Z,996.77
2019-03-03T10:27:10.137Z,996.75
2019-03-03T10:28:11.529Z,996.82
2019-03-03T10:29:12.944Z,996.66
2019-03-03T10:30:14.346Z,996.68
2019-03-03T10:31:15.735Z,996.75
2019-03-03T10:32:17.133Z,996.69
2019-03-03T10:33:18.533Z,996.69
2019-03-03T10:34:19.920Z,996.68
2019-03-03T10:35:21.337Z,996.75
2019-03-03T10:36:22.736Z,996.63
2019-03-03T10:37:24.147Z,996.70
2019-03-03T10:38:25.532Z,996.68
2019-03-03T10:39:26.938Z,996.73
2019-03-03T10:40:28.361Z,996.74
2019-03-03T10:41:30.444Z,996.77
2019-03-03T10:42:31.850Z,996.74
2019-03-03T10:43:33.790Z,996.83
2019-03-03T10:44:35.218Z,996.76
2019-03-03T10:45:36.621Z,996.72
2019-03-03T10:46:38.029Z,996.70
2019-03-03T10:47:39.433Z,996.73
2019-03-03T10:48:40.889Z,996.70
2019-03-03T10:49:42.294Z,996.69
2019-03-03T10:50:43.693Z,996.64
2019-03-03T10:51:45.091Z,996.59
2019-03-03T10:52:46.478Z,996.60
2019-03-03T10:53:47.884Z,996.62
2019-03-03T10:54:49.270Z,996.61
2019-03-03T10:55:50.671Z,996.69
2019-03-03T10:56:52.065Z,996.57
2019-03-03T10:57:53.460Z,996.62
2019-03-03T10:58:54.861Z,996.61
2019-03-03T10:59:56.254Z,996.62
2019-03-03T11:00:57.650Z,996.66
2019-03-03T11:01:59.051Z,996.66
2019-03-03T11:03:01.926Z,996.72
2019-03-03T11:04:01.800Z,996.66
2019-03-03T11:05:03.200Z,996.77
2019-03-03T11:06:04.601Z,996.70
2019-03-03T11:07:06.000Z,996.68
2019-03-03T11:08:07.394Z,996.71
2019-03-03T11:09:08.805Z,996.64
2019-03-03T11:10:10.204Z,996.65
2019-03-03T11:11:11.596Z,996.69
2019-03-03T11:12:12.992Z,996.75
2019-03-03T11:13:14.390Z,996.71
2019-03-03T11:14:15.785Z,996.77
2019-03-03T11:15:18.760Z,996.65
2019-03-03T11:16:18.556Z,996.72
2019-03-03T11:17:19.974Z,996.71
2019-03-03T11:18:21.370Z,996.72
2019-03-03T11:19:22.766Z,996.65
2019-03-03T11:20:24.167Z,996.62
2019-03-03T11:21:25.561Z,996.63
2019-03-03T11:22:26.961Z,996.57
2019-03-03T11:23:28.369Z,996.57
2019-03-03T11:24:31.760Z,996.59
2019-03-03T11:25:31.120Z,996.57
2019-03-03T11:26:32.520Z,996.53
2019-03-03T11:27:33.942Z,996.44
2019-03-03T11:28:35.307Z,996.47
2019-03-03T11:29:36.705Z,996.49
2019-03-03T11:30:39.428Z,996.58
2019-03-03T11:31:39.462Z,996.52
2019-03-03T11:32:40.863Z,996.53
2019-03-03T11:33:42.254Z,996.55
2019-03-03T11:34:43.650Z,996.50
2019-03-03T11:35:45.055Z,996.52
2019-03-03T11:36:46.450Z,996.43
2019-03-03T11:37:47.848Z,996.47
2019-03-03T11:38:49.251Z,996.44
2019-03-03T11:39:50.648Z,996.47
2019-03-03T11:40:52.041Z,996.43
2019-03-03T11:41:53.443Z,996.43
2019-03-03T11:42:54.851Z,996.37
2019-03-03T11:43:56.247Z,996.34
2019-03-03T11:44:57.659Z,996.50
2019-03-03T11:45:59.057Z,996.30
2019-03-03T11:47:00.461Z,996.39
2019-03-03T11:48:04.452Z,996.37
2019-03-03T11:49:03.224Z,996.29
2019-03-03T11:50:04.617Z,996.35
2019-03-03T11:51:06.024Z,996.32
2019-03-03T11:52:07.418Z,996.33
2019-03-03T11:53:08.813Z,996.35
2019-03-03T11:54:10.214Z,996.42
2019-03-03T11:55:11.608Z,996.39
2019-03-03T11:56:13.020Z,996.37
2019-03-03T11:57:14.415Z,996.21
2019-03-03T11:58:15.810Z,996.34
2019-03-03T11:59:18.406Z,996.33
2019-03-03T12:00:19.816Z,996.32
2019-03-03T12:01:21.198Z,996.27
2019-03-03T12:02:22.598Z,996.28
2019-03-03T12:03:24.017Z,996.29
2019-03-03T12:04:25.438Z,996.32
2019-03-03T12:05:26.838Z,996.29
2019-03-03T12:06:28.218Z,996.36
2019-03-03T12:07:29.648Z,996.43
2019-03-03T12:08:31.054Z,996.43
2019-03-03T12:09:32.450Z,996.41
2019-03-03T12:10:34.177Z,996.42
2019-03-03T12:11:35.203Z,996.36
2019-03-03T12:12:36.613Z,996.42
2019-03-03T12:13:38.033Z,996.36
2019-03-03T12:14:39.476Z,996.39
2019-03-03T12:15:40.974Z,996.43
2019-03-03T12:16:42.710Z,996.46
2019-03-03T12:17:44.369Z,996.35
2019-03-03T12:18:46.757Z,996.38
2019-03-03T12:19:48.243Z,996.41
2019-03-03T12:20:49.717Z,996.42
2019-03-03T12:21:51.128Z,996.44
2019-03-03T12:22:52.543Z,996.43
2019-03-03T12:23:53.957Z,996.42
2019-03-03T12:24:55.359Z,996.41
2019-03-03T12:25:56.758Z,996.43
2019-03-03T12:26:58.175Z,996.47
2019-03-03T12:27:59.602Z,996.41
2019-03-03T12:29:01.028Z,996.41
2019-03-03T12:30:02.462Z,996.37
2019-03-03T12:31:03.900Z,996.43
2019-03-03T12:32:05.348Z,996.44
2019-03-03T12:33:06.742Z,996.45
2019-03-03T12:34:08.190Z,996.41
2019-03-03T12:35:09.632Z,996.46
2019-03-03T12:36:11.052Z,996.44
2019-03-03T12:37:12.460Z,996.41
2019-03-03T12:38:13.881Z,996.47
2019-03-03T12:39:15.327Z,996.47
2019-03-03T12:40:16.747Z,996.49
2019-03-03T12:41:18.146Z,996.48